sensor_id;sensor_type;location;lat;lon;timestamp;pressure;altitude;pressure_sealevel;temperature;humidity
72118;BME280;59992;47.490;8.736;2023-06-22T00:02:16;96517.70;;;18.86;92.90
72118;BME280;59992;47.490;8.736;2023-06-22T00:05:07;96522.43;;;18.90;92.36
72118;BME280;59992;47.490;8.736;2023-06-22T00:07:57;96520.95;;;18.88;90.29
72118;BME280;59992;47.490;8.736;2023-06-22T00:10:48;96523.50;;;18.86;89.37
72118;BME280;59992;47.490;8.736;2023-06-22T00:13:38;96517.80;;;18.84;90.60
72118;BME280;59992;47.490;8.736;2023-06-22T00:16:29;96520.54;;;18.81;93.07
72118;BME280;59992;47.490;8.736;2023-06-22T00:19:19;96522.70;;;18.80;93.59
72118;BME280;59992;47.490;8.736;2023-06-22T00:22:10;96516.46;;;18.79;93.17
72118;BME280;59992;47.490;8.736;2023-06-22T00:25:00;96517.64;;;18.77;92.59
72118;BME280;59992;47.490;8.736;2023-06-22T00:27:50;96521.91;;;18.74;94.48
72118;BME280;59992;47.490;8.736;2023-06-22T00:30:40;96518.05;;;18.71;94.92
72118;BME280;59992;47.490;8.736;2023-06-22T00:33:30;96518.23;;;18.70;93.19
72118;BME280;59992;47.490;8.736;2023-06-22T00:36:20;96512.05;;;18.68;91.93
72118;BME280;59992;47.490;8.736;2023-06-22T00:39:13;96505.46;;;18.64;91.99
72118;BME280;59992;47.490;8.736;2023-06-22T00:42:04;96510.90;;;18.60;93.29
72118;BME280;59992;47.490;8.736;2023-06-22T00:44:54;96514.06;;;18.56;94.15
72118;BME280;59992;47.490;8.736;2023-06-22T00:47:44;96514.55;;;18.50;93.02
72118;BME280;59992;47.490;8.736;2023-06-22T00:50:35;96515.80;;;18.45;92.73
72118;BME280;59992;47.490;8.736;2023-06-22T00:53:25;96512.10;;;18.40;92.48
72118;BME280;59992;47.490;8.736;2023-06-22T00:56:16;96516.33;;;18.36;91.70
72118;BME280;59992;47.490;8.736;2023-06-22T00:59:10;96518.86;;;18.32;94.72
72118;BME280;59992;47.490;8.736;2023-06-22T01:02:02;96525.25;;;18.30;95.74
72118;BME280;59992;47.490;8.736;2023-06-22T01:04:52;96522.21;;;18.29;93.70
72118;BME280;59992;47.490;8.736;2023-06-22T01:08:03;96532.69;;;18.26;94.60
72118;BME280;59992;47.490;8.736;2023-06-22T01:11:04;96533.22;;;18.27;93.60
72118;BME280;59992;47.490;8.736;2023-06-22T01:14:02;96525.22;;;18.24;95.30
72118;BME280;59992;47.490;8.736;2023-06-22T01:16:54;96531.40;;;18.21;95.75
72118;BME280;59992;47.490;8.736;2023-06-22T01:19:53;96533.98;;;18.18;94.10
72118;BME280;59992;47.490;8.736;2023-06-22T01:23:02;96535.33;;;18.15;93.70
72118;BME280;59992;47.490;8.736;2023-06-22T01:26:02;96541.38;;;18.11;95.02
72118;BME280;59992;47.490;8.736;2023-06-22T01:28:55;96546.63;;;18.09;94.95
72118;BME280;59992;47.490;8.736;2023-06-22T01:31:48;96547.27;;;18.07;93.06
72118;BME280;59992;47.490;8.736;2023-06-22T01:34:40;96549.45;;;18.06;92.17
72118;BME280;59992;47.490;8.736;2023-06-22T01:37:32;96554.13;;;18.05;92.83
72118;BME280;59992;47.490;8.736;2023-06-22T01:40:23;96554.41;;;18.02;93.64
72118;BME280;59992;47.490;8.736;2023-06-22T01:43:15;96563.12;;;17.98;93.64
72118;BME280;59992;47.490;8.736;2023-06-22T01:46:06;96565.66;;;17.98;94.81
72118;BME280;59992;47.490;8.736;2023-06-22T01:48:57;96559.63;;;17.96;93.96
72118;BME280;59992;47.490;8.736;2023-06-22T01:51:48;96561.71;;;17.95;94.20
72118;BME280;59992;47.490;8.736;2023-06-22T01:54:39;96553.09;;;17.93;94.76
72118;BME280;59992;47.490;8.736;2023-06-22T01:57:29;96543.77;;;17.91;94.71
72118;BME280;59992;47.490;8.736;2023-06-22T02:00:22;96547.87;;;17.89;93.82
72118;BME280;59992;47.490;8.736;2023-06-22T02:03:21;96557.42;;;17.86;92.60
72118;BME280;59992;47.490;8.736;2023-06-22T02:06:16;96563.98;;;17.83;94.35
72118;BME280;59992;47.490;8.736;2023-06-22T02:09:11;96568.39;;;17.80;97.17
72118;BME280;59992;47.490;8.736;2023-06-22T02:12:04;96567.96;;;17.78;96.40
72118;BME280;59992;47.490;8.736;2023-06-22T02:14:55;96563.34;;;17.74;96.34
72118;BME280;59992;47.490;8.736;2023-06-22T02:17:46;96564.38;;;17.72;94.15
72118;BME280;59992;47.490;8.736;2023-06-22T02:20:39;96557.61;;;17.68;94.76
72118;BME280;59992;47.490;8.736;2023-06-22T02:23:29;96556.61;;;17.64;96.55
72118;BME280;59992;47.490;8.736;2023-06-22T02:26:21;96557.42;;;17.61;97.44
72118;BME280;59992;47.490;8.736;2023-06-22T02:29:12;96552.98;;;17.56;97.56
72118;BME280;59992;47.490;8.736;2023-06-22T02:32:04;96561.96;;;17.54;97.45
72118;BME280;59992;47.490;8.736;2023-06-22T02:34:54;96558.55;;;17.51;95.52
72118;BME280;59992;47.490;8.736;2023-06-22T02:37:45;96549.91;;;17.43;98.12
72118;BME280;59992;47.490;8.736;2023-06-22T02:40:35;96559.89;;;17.46;97.61
72118;BME280;59992;47.490;8.736;2023-06-22T02:43:25;96549.52;;;17.43;95.17
72118;BME280;59992;47.490;8.736;2023-06-22T02:46:16;96545.52;;;17.40;95.90
72118;BME280;59992;47.490;8.736;2023-06-22T02:49:06;96545.86;;;17.37;95.91
72118;BME280;59992;47.490;8.736;2023-06-22T02:51:56;96546.20;;;17.34;95.56
72118;BME280;59992;47.490;8.736;2023-06-22T02:54:46;96550.61;;;17.31;98.98
72118;BME280;59992;47.490;8.736;2023-06-22T02:57:36;96554.46;;;17.30;99.34
72118;BME280;59992;47.490;8.736;2023-06-22T03:00:27;96561.52;;;17.28;98.72
72118;BME280;59992;47.490;8.736;2023-06-22T03:03:19;96559.16;;;17.27;97.46
72118;BME280;59992;47.490;8.736;2023-06-22T03:06:09;96549.02;;;17.25;96.89
72118;BME280;59992;47.490;8.736;2023-06-22T03:09:04;96556.36;;;17.25;98.56
72118;BME280;59992;47.490;8.736;2023-06-22T03:11:55;96551.40;;;17.24;96.57
72118;BME280;59992;47.490;8.736;2023-06-22T03:14:45;96547.35;;;17.24;96.76
72118;BME280;59992;47.490;8.736;2023-06-22T03:17:36;96544.89;;;17.24;99.75
72118;BME280;59992;47.490;8.736;2023-06-22T03:20:27;96544.74;;;17.24;99.87
72118;BME280;59992;47.490;8.736;2023-06-22T03:23:22;96539.15;;;17.24;100.00
72118;BME280;59992;47.490;8.736;2023-06-22T03:26:12;96549.69;;;17.26;99.76
72118;BME280;59992;47.490;8.736;2023-06-22T03:29:02;96551.73;;;17.27;97.38
72118;BME280;59992;47.490;8.736;2023-06-22T03:31:53;96550.67;;;17.26;99.77
72118;BME280;59992;47.490;8.736;2023-06-22T03:34:43;96544.77;;;17.27;96.77
72118;BME280;59992;47.490;8.736;2023-06-22T03:37:36;96540.16;;;17.28;96.97
72118;BME280;59992;47.490;8.736;2023-06-22T03:40:26;96525.61;;;17.29;97.43
72118;BME280;59992;47.490;8.736;2023-06-22T03:43:16;96539.23;;;17.30;98.85
72118;BME280;59992;47.490;8.736;2023-06-22T03:46:06;96538.58;;;17.32;99.95
72118;BME280;59992;47.490;8.736;2023-06-22T03:48:56;96541.98;;;17.35;98.11
72118;BME280;59992;47.490;8.736;2023-06-22T03:51:47;96533.08;;;17.38;95.91
72118;BME280;59992;47.490;8.736;2023-06-22T03:54:37;96540.06;;;17.41;97.32
72118;BME280;59992;47.490;8.736;2023-06-22T03:57:27;96530.83;;;17.45;98.15
72118;BME280;59992;47.490;8.736;2023-06-22T04:00:18;96530.63;;;17.49;97.45
72118;BME280;59992;47.490;8.736;2023-06-22T04:03:08;96528.54;;;17.56;98.61
72118;BME280;59992;47.490;8.736;2023-06-22T04:05:58;96522.09;;;17.63;96.55
72118;BME280;59992;47.490;8.736;2023-06-22T04:08:48;96525.36;;;17.68;97.76
72118;BME280;59992;47.490;8.736;2023-06-22T04:11:39;96528.61;;;17.76;95.98
72118;BME280;59992;47.490;8.736;2023-06-22T04:14:30;96516.29;;;17.85;94.97
72118;BME280;59992;47.490;8.736;2023-06-22T04:17:20;96515.46;;;17.93;94.95
72118;BME280;59992;47.490;8.736;2023-06-22T04:20:11;96516.52;;;18.03;94.76
72118;BME280;59992;47.490;8.736;2023-06-22T04:23:01;96517.83;;;18.17;93.82
72118;BME280;59992;47.490;8.736;2023-06-22T04:25:52;96514.51;;;18.31;93.44
72118;BME280;59992;47.490;8.736;2023-06-22T04:28:42;96520.06;;;18.55;92.71
72118;BME280;59992;47.490;8.736;2023-06-22T04:31:40;96517.68;;;18.75;91.12
72118;BME280;59992;47.490;8.736;2023-06-22T04:34:31;96519.39;;;18.93;90.45
72118;BME280;59992;47.490;8.736;2023-06-22T04:37:21;96514.64;;;19.18;90.69
72118;BME280;59992;47.490;8.736;2023-06-22T04:40:13;96517.77;;;19.51;88.79
72118;BME280;59992;47.490;8.736;2023-06-22T04:43:04;96515.31;;;19.90;86.53
72118;BME280;59992;47.490;8.736;2023-06-22T04:45:55;96509.75;;;20.28;86.88
72118;BME280;59992;47.490;8.736;2023-06-22T04:48:46;96522.69;;;20.85;85.30
72118;BME280;59992;47.490;8.736;2023-06-22T04:51:40;96515.67;;;21.39;85.37
72118;BME280;59992;47.490;8.736;2023-06-22T04:54:31;96516.33;;;21.99;83.11
72118;BME280;59992;47.490;8.736;2023-06-22T04:57:22;96519.52;;;22.62;85.03
72118;BME280;59992;47.490;8.736;2023-06-22T05:00:21;96514.20;;;23.32;82.93
72118;BME280;59992;47.490;8.736;2023-06-22T05:03:15;96510.79;;;23.97;81.94
72118;BME280;59992;47.490;8.736;2023-06-22T05:06:07;96511.23;;;24.61;75.40
72118;BME280;59992;47.490;8.736;2023-06-22T05:08:58;96510.48;;;25.09;70.35
72118;BME280;59992;47.490;8.736;2023-06-22T05:11:48;96508.33;;;25.35;63.73
72118;BME280;59992;47.490;8.736;2023-06-22T05:14:38;96508.84;;;25.64;65.74
72118;BME280;59992;47.490;8.736;2023-06-22T05:17:29;96502.75;;;26.06;63.33
72118;BME280;59992;47.490;8.736;2023-06-22T05:20:19;96501.39;;;26.60;67.31
72118;BME280;59992;47.490;8.736;2023-06-22T05:23:10;96494.69;;;26.93;58.24
72118;BME280;59992;47.490;8.736;2023-06-22T05:26:01;96503.25;;;27.17;56.88
72118;BME280;59992;47.490;8.736;2023-06-22T05:28:51;96490.38;;;27.50;56.76
72118;BME280;59992;47.490;8.736;2023-06-22T05:31:42;96488.58;;;27.84;56.76
72118;BME280;59992;47.490;8.736;2023-06-22T05:34:32;96488.85;;;28.14;54.23
72118;BME280;59992;47.490;8.736;2023-06-22T05:37:22;96489.99;;;28.40;53.74
72118;BME280;59992;47.490;8.736;2023-06-22T05:40:13;96494.15;;;28.70;55.18
72118;BME280;59992;47.490;8.736;2023-06-22T05:43:03;96501.80;;;29.16;58.20
72118;BME280;59992;47.490;8.736;2023-06-22T05:45:53;96500.25;;;29.67;51.41
72118;BME280;59992;47.490;8.736;2023-06-22T05:48:43;96503.65;;;29.83;49.42
72118;BME280;59992;47.490;8.736;2023-06-22T05:51:34;96499.98;;;29.84;49.42
72118;BME280;59992;47.490;8.736;2023-06-22T05:54:24;96505.93;;;30.03;48.82
72118;BME280;59992;47.490;8.736;2023-06-22T05:57:14;96509.32;;;30.31;52.41
72118;BME280;59992;47.490;8.736;2023-06-22T06:00:06;96508.77;;;30.78;49.73
72118;BME280;59992;47.490;8.736;2023-06-22T06:03:00;96505.06;;;31.25;47.95
72118;BME280;59992;47.490;8.736;2023-06-22T06:05:52;96496.23;;;31.58;46.06
72118;BME280;59992;47.490;8.736;2023-06-22T06:08:42;96488.55;;;31.89;46.34
72118;BME280;59992;47.490;8.736;2023-06-22T06:11:33;96489.21;;;32.22;45.54
72118;BME280;59992;47.490;8.736;2023-06-22T06:14:22;96492.17;;;32.55;44.83
72118;BME280;59992;47.490;8.736;2023-06-22T06:17:10;96495.85;;;32.76;44.17
72118;BME280;59992;47.490;8.736;2023-06-22T06:19:59;96500.31;;;32.81;43.73
72118;BME280;59992;47.490;8.736;2023-06-22T06:22:50;96506.27;;;32.86;41.92
72118;BME280;59992;47.490;8.736;2023-06-22T06:25:40;96506.12;;;32.99;42.61
72118;BME280;59992;47.490;8.736;2023-06-22T06:28:30;96506.90;;;33.01;42.33
72118;BME280;59992;47.490;8.736;2023-06-22T06:31:20;96509.83;;;32.93;41.02
72118;BME280;59992;47.490;8.736;2023-06-22T06:34:09;96509.69;;;32.90;42.86
72118;BME280;59992;47.490;8.736;2023-06-22T06:36:59;96507.51;;;33.07;43.19
72118;BME280;59992;47.490;8.736;2023-06-22T06:39:50;96511.23;;;33.11;40.94
72118;BME280;59992;47.490;8.736;2023-06-22T06:42:39;96507.50;;;33.08;40.62
72118;BME280;59992;47.490;8.736;2023-06-22T06:45:29;96510.25;;;32.99;42.05
72118;BME280;59992;47.490;8.736;2023-06-22T06:48:21;96513.69;;;32.90;42.56
72118;BME280;59992;47.490;8.736;2023-06-22T06:51:12;96514.09;;;32.99;41.18
72118;BME280;59992;47.490;8.736;2023-06-22T06:54:02;96518.34;;;32.90;41.88
72118;BME280;59992;47.490;8.736;2023-06-22T06:56:53;96518.84;;;33.01;40.78
72118;BME280;59992;47.490;8.736;2023-06-22T06:59:43;96518.92;;;33.11;40.30
72118;BME280;59992;47.490;8.736;2023-06-22T07:02:32;96518.95;;;33.13;41.12
72118;BME280;59992;47.490;8.736;2023-06-22T07:05:20;96519.07;;;33.30;40.10
72118;BME280;59992;47.490;8.736;2023-06-22T07:08:09;96514.22;;;33.42;40.80
72118;BME280;59992;47.490;8.736;2023-06-22T07:10:58;96504.95;;;33.52;41.03
72118;BME280;59992;47.490;8.736;2023-06-22T07:13:48;96508.42;;;33.61;39.66
72118;BME280;59992;47.490;8.736;2023-06-22T07:16:36;96503.83;;;33.68;39.89
72118;BME280;59992;47.490;8.736;2023-06-22T07:19:25;96508.88;;;33.82;39.83
72118;BME280;59992;47.490;8.736;2023-06-22T07:22:16;96514.70;;;34.04;38.70
72118;BME280;59992;47.490;8.736;2023-06-22T07:25:07;96513.95;;;34.11;38.69
72118;BME280;59992;47.490;8.736;2023-06-22T07:28:03;96516.83;;;33.71;39.14
72118;BME280;59992;47.490;8.736;2023-06-22T07:30:53;96522.46;;;32.93;40.78
72118;BME280;59992;47.490;8.736;2023-06-22T07:33:44;96542.30;;;32.23;42.25
72118;BME280;59992;47.490;8.736;2023-06-22T07:36:34;96576.35;;;31.41;44.14
72118;BME280;59992;47.490;8.736;2023-06-22T07:39:24;96612.38;;;30.74;45.92
72118;BME280;59992;47.490;8.736;2023-06-22T07:42:15;96632.21;;;30.03;47.16
72118;BME280;59992;47.490;8.736;2023-06-22T07:45:09;96657.45;;;29.01;49.73
72118;BME280;59992;47.490;8.736;2023-06-22T07:47:59;96640.43;;;28.50;50.77
72118;BME280;59992;47.490;8.736;2023-06-22T07:50:49;96645.63;;;28.03;52.62
72118;BME280;59992;47.490;8.736;2023-06-22T07:53:39;96688.15;;;27.58;55.17
72118;BME280;59992;47.490;8.736;2023-06-22T07:56:29;96651.68;;;27.27;55.57
72118;BME280;59992;47.490;8.736;2023-06-22T07:59:20;96652.45;;;27.21;55.00
72118;BME280;59992;47.490;8.736;2023-06-22T08:02:10;96660.98;;;27.12;56.75
72118;BME280;59992;47.490;8.736;2023-06-22T08:05:00;96637.66;;;27.29;57.44
72118;BME280;59992;47.490;8.736;2023-06-22T08:07:51;96654.56;;;27.75;56.32
72118;BME280;59992;47.490;8.736;2023-06-22T08:10:43;96640.00;;;28.12;55.81
72118;BME280;59992;47.490;8.736;2023-06-22T08:13:34;96639.35;;;28.57;53.48
72118;BME280;59992;47.490;8.736;2023-06-22T08:16:24;96650.45;;;29.00;52.27
72118;BME280;59992;47.490;8.736;2023-06-22T08:19:14;96646.46;;;29.39;52.30
72118;BME280;59992;47.490;8.736;2023-06-22T08:22:05;96642.02;;;29.53;50.36
72118;BME280;59992;47.490;8.736;2023-06-22T08:24:55;96646.91;;;29.99;50.36
72118;BME280;59992;47.490;8.736;2023-06-22T08:27:47;96632.16;;;30.23;49.16
72118;BME280;59992;47.490;8.736;2023-06-22T08:30:38;96614.39;;;29.91;49.99
72118;BME280;59992;47.490;8.736;2023-06-22T08:33:28;96620.34;;;30.18;49.66
72118;BME280;59992;47.490;8.736;2023-06-22T08:36:19;96597.32;;;30.44;48.64
72118;BME280;59992;47.490;8.736;2023-06-22T08:39:09;96590.17;;;30.85;48.38
72118;BME280;59992;47.490;8.736;2023-06-22T08:42:00;96581.78;;;31.29;46.68
72118;BME280;59992;47.490;8.736;2023-06-22T08:44:50;96569.55;;;31.82;46.42
72118;BME280;59992;47.490;8.736;2023-06-22T08:47:41;96554.13;;;32.18;44.21
72118;BME280;59992;47.490;8.736;2023-06-22T08:50:31;96574.45;;;32.25;43.59
72118;BME280;59992;47.490;8.736;2023-06-22T08:53:22;96573.56;;;32.08;43.09
72118;BME280;59992;47.490;8.736;2023-06-22T08:56:12;96580.71;;;31.74;43.89
72118;BME280;59992;47.490;8.736;2023-06-22T08:59:02;96584.86;;;31.28;45.20
72118;BME280;59992;47.490;8.736;2023-06-22T09:01:52;96582.46;;;31.02;46.38
72118;BME280;59992;47.490;8.736;2023-06-22T09:04:42;96580.95;;;31.06;47.32
72118;BME280;59992;47.490;8.736;2023-06-22T09:07:32;96590.79;;;31.30;46.95
72118;BME280;59992;47.490;8.736;2023-06-22T09:10:23;96572.50;;;31.22;47.03
72118;BME280;59992;47.490;8.736;2023-06-22T09:13:14;96567.48;;;31.26;45.89
72118;BME280;59992;47.490;8.736;2023-06-22T09:16:04;96560.79;;;31.18;46.55
72118;BME280;59992;47.490;8.736;2023-06-22T09:18:56;96553.91;;;31.09;47.32
72118;BME280;59992;47.490;8.736;2023-06-22T09:21:46;96553.08;;;30.89;47.02
72118;BME280;59992;47.490;8.736;2023-06-22T09:24:37;96559.02;;;30.95;47.59
72118;BME280;59992;47.490;8.736;2023-06-22T09:27:27;96556.91;;;31.21;47.99
72118;BME280;59992;47.490;8.736;2023-06-22T09:30:17;96547.42;;;31.57;47.46
72118;BME280;59992;47.490;8.736;2023-06-22T09:33:07;96534.05;;;31.75;45.89
72118;BME280;59992;47.490;8.736;2023-06-22T09:35:57;96522.33;;;31.82;45.08
72118;BME280;59992;47.490;8.736;2023-06-22T09:38:49;96521.33;;;32.11;44.35
72118;BME280;59992;47.490;8.736;2023-06-22T09:41:44;96519.65;;;32.25;43.92
72118;BME280;59992;47.490;8.736;2023-06-22T09:44:35;96518.45;;;32.49;44.33
72118;BME280;59992;47.490;8.736;2023-06-22T09:47:25;96523.96;;;32.76;42.78
72118;BME280;59992;47.490;8.736;2023-06-22T09:50:16;96514.16;;;32.60;42.27
72118;BME280;59992;47.490;8.736;2023-06-22T09:53:06;96509.05;;;32.71;41.45
72118;BME280;59992;47.490;8.736;2023-06-22T09:55:56;96508.53;;;32.67;42.68
72118;BME280;59992;47.490;8.736;2023-06-22T09:58:47;96507.64;;;32.76;42.83
72118;BME280;59992;47.490;8.736;2023-06-22T10:01:41;96507.95;;;32.63;41.81
72118;BME280;59992;47.490;8.736;2023-06-22T10:04:31;96496.70;;;32.45;41.30
72118;BME280;59992;47.490;8.736;2023-06-22T10:07:21;96488.88;;;32.02;42.08
72118;BME280;59992;47.490;8.736;2023-06-22T10:10:12;96476.10;;;31.92;41.39
72118;BME280;59992;47.490;8.736;2023-06-22T10:13:07;96460.89;;;31.92;42.05
72118;BME280;59992;47.490;8.736;2023-06-22T10:15:58;96458.65;;;31.94;42.47
72118;BME280;59992;47.490;8.736;2023-06-22T10:18:48;96457.39;;;31.85;42.90
72118;BME280;59992;47.490;8.736;2023-06-22T10:21:39;96458.85;;;31.92;43.13
72118;BME280;59992;47.490;8.736;2023-06-22T10:24:29;96458.92;;;32.01;43.03
72118;BME280;59992;47.490;8.736;2023-06-22T10:27:20;96461.29;;;32.06;43.68
72118;BME280;59992;47.490;8.736;2023-06-22T10:30:12;96455.39;;;31.96;43.30
72118;BME280;59992;47.490;8.736;2023-06-22T10:33:02;96449.39;;;31.81;42.12
72118;BME280;59992;47.490;8.736;2023-06-22T10:35:52;96442.21;;;31.63;41.80
72118;BME280;59992;47.490;8.736;2023-06-22T10:38:43;96449.21;;;31.49;42.34
72118;BME280;59992;47.490;8.736;2023-06-22T10:41:33;96457.40;;;31.41;45.98
72118;BME280;59992;47.490;8.736;2023-06-22T10:44:23;96456.04;;;31.32;47.57
72118;BME280;59992;47.490;8.736;2023-06-22T10:47:13;96452.52;;;31.20;46.37
72118;BME280;59992;47.490;8.736;2023-06-22T10:50:05;96446.09;;;31.11;44.62
72118;BME280;59992;47.490;8.736;2023-06-22T10:52:56;96446.34;;;31.01;49.82
72118;BME280;59992;47.490;8.736;2023-06-22T10:55:46;96450.75;;;30.84;51.35
72118;BME280;59992;47.490;8.736;2023-06-22T10:58:36;96457.00;;;30.88;52.08
72118;BME280;59992;47.490;8.736;2023-06-22T11:01:26;96454.36;;;30.96;50.98
72118;BME280;59992;47.490;8.736;2023-06-22T11:04:17;96460.68;;;31.08;47.90
72118;BME280;59992;47.490;8.736;2023-06-22T11:07:08;96468.35;;;31.16;46.15
72118;BME280;59992;47.490;8.736;2023-06-22T11:09:59;96467.70;;;31.27;46.83
72118;BME280;59992;47.490;8.736;2023-06-22T11:12:49;96459.56;;;31.35;44.29
72118;BME280;59992;47.490;8.736;2023-06-22T11:15:40;96468.20;;;31.44;43.04
72118;BME280;59992;47.490;8.736;2023-06-22T11:18:30;96475.38;;;31.52;43.40
72118;BME280;59992;47.490;8.736;2023-06-22T11:21:22;96473.66;;;31.57;46.60
72118;BME280;59992;47.490;8.736;2023-06-22T11:24:12;96478.80;;;31.54;45.18
72118;BME280;59992;47.490;8.736;2023-06-22T11:27:03;96476.13;;;31.47;48.64
72118;BME280;59992;47.490;8.736;2023-06-22T11:29:53;96479.59;;;31.33;49.68
72118;BME280;59992;47.490;8.736;2023-06-22T11:32:44;96484.44;;;31.16;48.15
72118;BME280;59992;47.490;8.736;2023-06-22T11:35:34;96482.95;;;31.14;46.94
72118;BME280;59992;47.490;8.736;2023-06-22T11:38:24;96482.34;;;31.21;43.21
72118;BME280;59992;47.490;8.736;2023-06-22T11:41:14;96483.98;;;31.20;42.28
72118;BME280;59992;47.490;8.736;2023-06-22T11:44:05;96489.86;;;31.25;43.17
72118;BME280;59992;47.490;8.736;2023-06-22T11:46:57;96492.64;;;31.30;43.10
72118;BME280;59992;47.490;8.736;2023-06-22T11:49:49;96488.41;;;31.23;43.34
72118;BME280;59992;47.490;8.736;2023-06-22T11:52:39;96490.16;;;31.28;43.35
72118;BME280;59992;47.490;8.736;2023-06-22T11:55:30;96488.38;;;31.23;43.30
72118;BME280;59992;47.490;8.736;2023-06-22T11:58:20;96492.35;;;31.31;45.39
72118;BME280;59992;47.490;8.736;2023-06-22T12:01:10;96495.70;;;31.28;46.91
72118;BME280;59992;47.490;8.736;2023-06-22T12:04:04;96498.48;;;31.33;45.10
72118;BME280;59992;47.490;8.736;2023-06-22T12:06:54;96501.52;;;31.33;46.20
72118;BME280;59992;47.490;8.736;2023-06-22T12:09:45;96497.06;;;31.38;47.18
72118;BME280;59992;47.490;8.736;2023-06-22T12:12:35;96500.23;;;31.36;45.84
72118;BME280;59992;47.490;8.736;2023-06-22T12:15:25;96497.84;;;31.36;47.39
72118;BME280;59992;47.490;8.736;2023-06-22T12:18:16;96488.23;;;31.43;45.46
72118;BME280;59992;47.490;8.736;2023-06-22T12:21:06;96481.50;;;31.47;44.56
72118;BME280;59992;47.490;8.736;2023-06-22T12:23:56;96481.15;;;31.53;46.05
72118;BME280;59992;47.490;8.736;2023-06-22T12:26:47;96483.83;;;31.58;44.77
72118;BME280;59992;47.490;8.736;2023-06-22T12:29:37;96481.84;;;31.61;47.31
72118;BME280;59992;47.490;8.736;2023-06-22T12:32:27;96477.05;;;31.62;46.18
72118;BME280;59992;47.490;8.736;2023-06-22T12:35:17;96469.83;;;31.60;49.87
72118;BME280;59992;47.490;8.736;2023-06-22T12:38:07;96464.54;;;31.59;48.56
72118;BME280;59992;47.490;8.736;2023-06-22T12:40:58;96462.40;;;31.62;46.35
72118;BME280;59992;47.490;8.736;2023-06-22T12:43:49;96473.20;;;31.64;46.57
72118;BME280;59992;47.490;8.736;2023-06-22T12:46:39;96471.61;;;31.67;44.40
72118;BME280;59992;47.490;8.736;2023-06-22T12:49:29;96479.02;;;31.69;47.36
72118;BME280;59992;47.490;8.736;2023-06-22T12:52:19;96484.20;;;31.70;49.26
72118;BME280;59992;47.490;8.736;2023-06-22T12:55:10;96489.44;;;31.72;47.55
72118;BME280;59992;47.490;8.736;2023-06-22T12:58:00;96479.18;;;31.68;46.28
72118;BME280;59992;47.490;8.736;2023-06-22T13:00:50;96478.46;;;31.75;47.36
72118;BME280;59992;47.490;8.736;2023-06-22T13:03:52;96471.83;;;31.80;44.90
72118;BME280;59992;47.490;8.736;2023-06-22T13:06:42;96468.91;;;31.68;45.35
72118;BME280;59992;47.490;8.736;2023-06-22T13:09:37;96448.81;;;31.67;44.02
72118;BME280;59992;47.490;8.736;2023-06-22T13:12:27;96439.95;;;31.51;41.30
72118;BME280;59992;47.490;8.736;2023-06-22T13:15:18;96451.84;;;31.34;41.98
72118;BME280;59992;47.490;8.736;2023-06-22T13:18:08;96445.33;;;31.24;40.75
72118;BME280;59992;47.490;8.736;2023-06-22T13:20:58;96445.70;;;31.11;41.89
72118;BME280;59992;47.490;8.736;2023-06-22T13:23:48;96447.63;;;31.19;43.89
72118;BME280;59992;47.490;8.736;2023-06-22T13:26:39;96469.15;;;31.15;45.43
72118;BME280;59992;47.490;8.736;2023-06-22T13:29:29;96470.25;;;31.25;44.27
72118;BME280;59992;47.490;8.736;2023-06-22T13:32:19;96466.81;;;31.37;46.31
72118;BME280;59992;47.490;8.736;2023-06-22T13:35:10;96485.45;;;31.39;43.97
72118;BME280;59992;47.490;8.736;2023-06-22T13:38:00;96480.87;;;31.33;44.02
72118;BME280;59992;47.490;8.736;2023-06-22T13:40:51;96498.74;;;31.46;43.18
72118;BME280;59992;47.490;8.736;2023-06-22T13:43:41;96498.33;;;31.07;41.71
72118;BME280;59992;47.490;8.736;2023-06-22T13:46:31;96493.93;;;30.98;41.01
72118;BME280;59992;47.490;8.736;2023-06-22T13:49:21;96494.89;;;30.95;41.41
72118;BME280;59992;47.490;8.736;2023-06-22T13:52:11;96499.40;;;30.88;41.00
72118;BME280;59992;47.490;8.736;2023-06-22T13:55:01;96496.57;;;30.71;40.35
72118;BME280;59992;47.490;8.736;2023-06-22T13:57:52;96494.17;;;30.77;40.82
72118;BME280;59992;47.490;8.736;2023-06-22T14:00:42;96495.20;;;30.67;40.83
72118;BME280;59992;47.490;8.736;2023-06-22T14:03:34;96495.39;;;30.59;42.41
72118;BME280;59992;47.490;8.736;2023-06-22T14:06:24;96496.29;;;30.43;42.62
72118;BME280;59992;47.490;8.736;2023-06-22T14:09:14;96492.84;;;30.38;43.87
72118;BME280;59992;47.490;8.736;2023-06-22T14:12:07;96485.42;;;30.24;43.70
72118;BME280;59992;47.490;8.736;2023-06-22T14:14:57;96491.98;;;30.17;42.77
72118;BME280;59992;47.490;8.736;2023-06-22T14:17:47;96493.17;;;29.92;43.50
72118;BME280;59992;47.490;8.736;2023-06-22T14:20:38;96493.75;;;29.83;43.57
72118;BME280;59992;47.490;8.736;2023-06-22T14:23:28;96500.37;;;29.75;43.67
72118;BME280;59992;47.490;8.736;2023-06-22T14:26:19;96505.00;;;29.63;44.07
72118;BME280;59992;47.490;8.736;2023-06-22T14:29:09;96515.35;;;29.45;45.06
72118;BME280;59992;47.490;8.736;2023-06-22T14:32:00;96515.96;;;29.22;45.41
72118;BME280;59992;47.490;8.736;2023-06-22T14:34:50;96507.97;;;28.98;44.54
72118;BME280;59992;47.490;8.736;2023-06-22T14:37:40;96487.23;;;28.80;44.94
72118;BME280;59992;47.490;8.736;2023-06-22T14:40:30;96495.80;;;28.81;45.28
72118;BME280;59992;47.490;8.736;2023-06-22T14:43:21;96495.67;;;28.78;46.90
72118;BME280;59992;47.490;8.736;2023-06-22T14:46:11;96464.52;;;28.69;45.76
72118;BME280;59992;47.490;8.736;2023-06-22T14:49:01;96435.95;;;28.55;44.82
72118;BME280;59992;47.490;8.736;2023-06-22T14:51:51;96426.52;;;28.40;46.68
72118;BME280;59992;47.490;8.736;2023-06-22T14:54:42;96432.30;;;28.38;48.87
72118;BME280;59992;47.490;8.736;2023-06-22T14:57:32;96438.48;;;28.31;47.51
72118;BME280;59992;47.490;8.736;2023-06-22T15:00:22;96440.00;;;28.24;49.57
72118;BME280;59992;47.490;8.736;2023-06-22T15:03:12;96444.30;;;28.15;49.66
72118;BME280;59992;47.490;8.736;2023-06-22T15:06:07;96440.46;;;28.09;49.64